sensor_id;sensor_type;location;lat;lon;timestamp;temperature;humidity
1063;DHT22;520;50.932;6.962;2023-04-26T00:02:25;9.50;74.20
1063;DHT22;520;50.932;6.962;2023-04-26T00:05:12;9.50;74.20
1063;DHT22;520;50.932;6.962;2023-04-26T00:07:51;9.40;74.30
1063;DHT22;520;50.932;6.962;2023-04-26T00:10:29;9.40;74.40
1063;DHT22;520;50.932;6.962;2023-04-26T00:13:21;9.30;74.40
1063;DHT22;520;50.932;6.962;2023-04-26T00:15:56;9.30;74.90
1063;DHT22;520;50.932;6.962;2023-04-26T00:18:41;9.20;75.10
1063;DHT22;520;50.932;6.962;2023-04-26T00:21:22;9.20;75.50
1063;DHT22;520;50.932;6.962;2023-04-26T00:24:05;9.20;75.70
1063;DHT22;520;50.932;6.962;2023-04-26T00:26:39;9.20;76.10
1063;DHT22;520;50.932;6.962;2023-04-26T00:29:13;9.10;76.10
1063;DHT22;520;50.932;6.962;2023-04-26T00:32:00;9.10;76.30
1063;DHT22;520;50.932;6.962;2023-04-26T00:34:42;9.10;76.40
1063;DHT22;520;50.932;6.962;2023-04-26T00:37:17;9.10;76.30
1063;DHT22;520;50.932;6.962;2023-04-26T00:40:26;9.00;76.40
1063;DHT22;520;50.932;6.962;2023-04-26T00:43:05;9.10;76.90
1063;DHT22;520;50.932;6.962;2023-04-26T00:45:46;9.00;76.80
1063;DHT22;520;50.932;6.962;2023-04-26T00:48:29;9.00;77.30
1063;DHT22;520;50.932;6.962;2023-04-26T00:51:28;9.10;77.60
1063;DHT22;520;50.932;6.962;2023-04-26T00:54:13;9.10;77.60
1063;DHT22;520;50.932;6.962;2023-04-26T00:57:11;9.00;77.40
1063;DHT22;520;50.932;6.962;2023-04-26T00:59:51;9.00;77.80
1063;DHT22;520;50.932;6.962;2023-04-26T01:02:49;8.90;78.20
1063;DHT22;520;50.932;6.962;2023-04-26T01:05:22;8.90;78.90
1063;DHT22;520;50.932;6.962;2023-04-26T01:08:08;8.90;79.10
1063;DHT22;520;50.932;6.962;2023-04-26T01:10:47;8.90;79.40
1063;DHT22;520;50.932;6.962;2023-04-26T01:13:43;8.80;79.60
1063;DHT22;520;50.932;6.962;2023-04-26T01:16:20;8.80;79.80
1063;DHT22;520;50.932;6.962;2023-04-26T01:19:10;8.80;80.10
1063;DHT22;520;50.932;6.962;2023-04-26T01:22:09;8.80;80.20
1063;DHT22;520;50.932;6.962;2023-04-26T01:24:53;8.80;80.50
1063;DHT22;520;50.932;6.962;2023-04-26T01:27:37;8.70;80.70
1063;DHT22;520;50.932;6.962;2023-04-26T01:30:28;8.70;81.10
1063;DHT22;520;50.932;6.962;2023-04-26T01:33:04;8.70;81.20
1063;DHT22;520;50.932;6.962;2023-04-26T01:35:43;8.70;81.50
1063;DHT22;520;50.932;6.962;2023-04-26T01:38:23;8.70;81.50
1063;DHT22;520;50.932;6.962;2023-04-26T01:41:19;8.70;81.80
1063;DHT22;520;50.932;6.962;2023-04-26T01:44:10;8.70;82.10
1063;DHT22;520;50.932;6.962;2023-04-26T01:46:51;8.70;82.40
1063;DHT22;520;50.932;6.962;2023-04-26T01:49:26;8.70;82.50
1063;DHT22;520;50.932;6.962;2023-04-26T01:52:15;8.70;82.60
1063;DHT22;520;50.932;6.962;2023-04-26T01:54:57;8.60;82.70
1063;DHT22;520;50.932;6.962;2023-04-26T01:57:44;8.60;83.00
1063;DHT22;520;50.932;6.962;2023-04-26T02:00:19;8.60;83.10
1063;DHT22;520;50.932;6.962;2023-04-26T02:02:55;8.60;83.00
1063;DHT22;520;50.932;6.962;2023-04-26T02:05:31;8.60;83.10
1063;DHT22;520;50.932;6.962;2023-04-26T02:08:20;8.70;83.30
1063;DHT22;520;50.932;6.962;2023-04-26T02:11:01;8.60;83.20
1063;DHT22;520;50.932;6.962;2023-04-26T02:13:45;8.60;83.40
1063;DHT22;520;50.932;6.962;2023-04-26T02:16:16;8.60;83.80
1063;DHT22;520;50.932;6.962;2023-04-26T02:18:50;8.60;83.80
1063;DHT22;520;50.932;6.962;2023-04-26T02:21:25;8.60;84.00
1063;DHT22;520;50.932;6.962;2023-04-26T02:24:06;8.40;84.00
1063;DHT22;520;50.932;6.962;2023-04-26T02:26:42;8.40;84.60
1063;DHT22;520;50.932;6.962;2023-04-26T02:29:15;8.40;85.00
1063;DHT22;520;50.932;6.962;2023-04-26T02:32:11;8.40;85.20
1063;DHT22;520;50.932;6.962;2023-04-26T02:34:49;8.40;85.30
1063;DHT22;520;50.932;6.962;2023-04-26T02:37:16;8.40;85.60
1063;DHT22;520;50.932;6.962;2023-04-26T02:39:53;8.30;85.80
1063;DHT22;520;50.932;6.962;2023-04-26T02:42:26;8.60;86.00
1063;DHT22;520;50.932;6.962;2023-04-26T02:44:57;8.40;85.50
1063;DHT22;520;50.932;6.962;2023-04-26T02:47:29;8.40;85.90
1063;DHT22;520;50.932;6.962;2023-04-26T02:49:59;8.30;86.00
1063;DHT22;520;50.932;6.962;2023-04-26T02:52:26;8.30;86.60
1063;DHT22;520;50.932;6.962;2023-04-26T02:54:56;8.40;86.50
1063;DHT22;520;50.932;6.962;2023-04-26T02:57:39;8.50;86.60
1063;DHT22;520;50.932;6.962;2023-04-26T03:00:22;8.30;86.10
1063;DHT22;520;50.932;6.962;2023-04-26T03:03:06;8.30;86.70
1063;DHT22;520;50.932;6.962;2023-04-26T03:05:46;8.20;87.00
1063;DHT22;520;50.932;6.962;2023-04-26T03:08:13;8.20;87.50
1063;DHT22;520;50.932;6.962;2023-04-26T03:10:53;8.10;87.70
1063;DHT22;520;50.932;6.962;2023-04-26T03:13:32;8.20;88.30
1063;DHT22;520;50.932;6.962;2023-04-26T03:16:01;8.20;88.20
1063;DHT22;520;50.932;6.962;2023-04-26T03:18:36;8.10;88.50
1063;DHT22;520;50.932;6.962;2023-04-26T03:21:06;8.00;88.90
1063;DHT22;520;50.932;6.962;2023-04-26T03:23:38;8.00;89.30
1063;DHT22;520;50.932;6.962;2023-04-26T03:26:18;8.00;89.60
1063;DHT22;520;50.932;6.962;2023-04-26T03:28:55;8.10;89.80
1063;DHT22;520;50.932;6.962;2023-04-26T03:31:31;8.10;89.80
1063;DHT22;520;50.932;6.962;2023-04-26T03:34:22;8.10;89.90
1063;DHT22;520;50.932;6.962;2023-04-26T03:37:08;8.00;89.90
1063;DHT22;520;50.932;6.962;2023-04-26T03:39:39;8.00;90.10
1063;DHT22;520;50.932;6.962;2023-04-26T03:42:09;8.00;90.10
1063;DHT22;520;50.932;6.962;2023-04-26T03:44:46;7.90;90.20
1063;DHT22;520;50.932;6.962;2023-04-26T03:47:16;7.90;90.30
1063;DHT22;520;50.932;6.962;2023-04-26T03:49:47;7.90;90.40
1063;DHT22;520;50.932;6.962;2023-04-26T03:52:14;7.90;90.40
1063;DHT22;520;50.932;6.962;2023-04-26T03:54:41;7.90;90.40
1063;DHT22;520;50.932;6.962;2023-04-26T03:57:12;7.90;90.50
1063;DHT22;520;50.932;6.962;2023-04-26T03:59:49;7.80;90.30
1063;DHT22;520;50.932;6.962;2023-04-26T04:02:15;7.80;90.40
1063;DHT22;520;50.932;6.962;2023-04-26T04:05:02;7.90;90.60
1063;DHT22;520;50.932;6.962;2023-04-26T04:10:40;7.80;90.60
1063;DHT22;520;50.932;6.962;2023-04-26T04:13:15;7.80;90.80
1063;DHT22;520;50.932;6.962;2023-04-26T04:15:45;7.80;90.90
1063;DHT22;520;50.932;6.962;2023-04-26T04:18:22;7.70;91.00
1063;DHT22;520;50.932;6.962;2023-04-26T04:20:56;7.80;91.00
1063;DHT22;520;50.932;6.962;2023-04-26T04:23:34;7.80;90.90
1063;DHT22;520;50.932;6.962;2023-04-26T04:26:07;7.80;91.00
1063;DHT22;520;50.932;6.962;2023-04-26T04:29:11;8.10;91.00
1063;DHT22;520;50.932;6.962;2023-04-26T04:31:49;8.00;90.70
1063;DHT22;520;50.932;6.962;2023-04-26T04:34:28;7.90;90.80
1063;DHT22;520;50.932;6.962;2023-04-26T04:37:03;7.80;91.00
1063;DHT22;520;50.932;6.962;2023-04-26T04:40:09;7.70;91.40
1063;DHT22;520;50.932;6.962;2023-04-26T04:42:41;7.60;91.80
1063;DHT22;520;50.932;6.962;2023-04-26T04:45:14;7.70;92.10
1063;DHT22;520;50.932;6.962;2023-04-26T04:47:50;7.60;92.20
1063;DHT22;520;50.932;6.962;2023-04-26T04:50:21;7.70;92.40
1063;DHT22;520;50.932;6.962;2023-04-26T04:59:09;7.80;92.40
1063;DHT22;520;50.932;6.962;2023-04-26T05:01:52;7.90;92.40
1063;DHT22;520;50.932;6.962;2023-04-26T05:04:22;8.00;92.10
1063;DHT22;520;50.932;6.962;2023-04-26T05:06:55;8.00;92.00
1063;DHT22;520;50.932;6.962;2023-04-26T05:09:44;8.00;92.00
1063;DHT22;520;50.932;6.962;2023-04-26T05:12:15;8.30;91.60
1063;DHT22;520;50.932;6.962;2023-04-26T05:14:49;8.20;91.50
1063;DHT22;520;50.932;6.962;2023-04-26T05:17:26;8.30;91.50
1063;DHT22;520;50.932;6.962;2023-04-26T05:20:12;8.40;91.50
1063;DHT22;520;50.932;6.962;2023-04-26T05:22:50;8.30;92.00
1063;DHT22;520;50.932;6.962;2023-04-26T05:25:21;8.20;92.60
1063;DHT22;520;50.932;6.962;2023-04-26T05:27:50;8.20;92.90
1063;DHT22;520;50.932;6.962;2023-04-26T05:30:35;8.20;93.10
1063;DHT22;520;50.932;6.962;2023-04-26T05:33:32;8.20;93.20
1063;DHT22;520;50.932;6.962;2023-04-26T05:39:02;8.20;94.00
1063;DHT22;520;50.932;6.962;2023-04-26T05:42:05;8.20;94.60
1063;DHT22;520;50.932;6.962;2023-04-26T05:44:43;8.10;94.70
1063;DHT22;520;50.932;6.962;2023-04-26T05:47:47;8.10;94.80
1063;DHT22;520;50.932;6.962;2023-04-26T05:50:25;8.00;94.90
1063;DHT22;520;50.932;6.962;2023-04-26T05:53:00;8.20;94.70
1063;DHT22;520;50.932;6.962;2023-04-26T05:55:35;8.30;94.50
1063;DHT22;520;50.932;6.962;2023-04-26T05:58:15;8.20;94.30
1063;DHT22;520;50.932;6.962;2023-04-26T06:00:46;8.40;93.70
1063;DHT22;520;50.932;6.962;2023-04-26T06:03:42;8.50;92.70
1063;DHT22;520;50.932;6.962;2023-04-26T06:06:15;8.60;92.00
1063;DHT22;520;50.932;6.962;2023-04-26T06:08:55;8.70;91.30
1063;DHT22;520;50.932;6.962;2023-04-26T06:11:51;8.90;91.00
1063;DHT22;520;50.932;6.962;2023-04-26T06:14:35;10.90;90.10
1063;DHT22;520;50.932;6.962;2023-04-26T06:17:48;14.20;78.40
1063;DHT22;520;50.932;6.962;2023-04-26T06:20:46;17.20;63.10
1063;DHT22;520;50.932;6.962;2023-04-26T06:23:24;18.80;56.20
1063;DHT22;520;50.932;6.962;2023-04-26T06:29:32;19.90;50.40
1063;DHT22;520;50.932;6.962;2023-04-26T06:32:13;21.40;49.80
1063;DHT22;520;50.932;6.962;2023-04-26T06:35:03;22.70;45.60
1063;DHT22;520;50.932;6.962;2023-04-26T06:37:53;22.10;44.20
1063;DHT22;520;50.932;6.962;2023-04-26T06:40:22;19.70;44.70
1063;DHT22;520;50.932;6.962;2023-04-26T06:42:51;16.90;47.60
1063;DHT22;520;50.932;6.962;2023-04-26T06:45:30;15.10;51.10
1063;DHT22;520;50.932;6.962;2023-04-26T06:48:03;13.80;54.30
1063;DHT22;520;50.932;6.962;2023-04-26T06:50:30;13.00;57.00
1063;DHT22;520;50.932;6.962;2023-04-26T06:53:08;12.50;58.80
1063;DHT22;520;50.932;6.962;2023-04-26T06:55:49;12.70;60.20
1063;DHT22;520;50.932;6.962;2023-04-26T06:58:30;13.30;59.60
1063;DHT22;520;50.932;6.962;2023-04-26T07:01:19;13.20;58.60
1063;DHT22;520;50.932;6.962;2023-04-26T07:03:51;13.00;59.30
1063;DHT22;520;50.932;6.962;2023-04-26T07:06:30;13.90;59.60
1063;DHT22;520;50.932;6.962;2023-04-26T07:09:10;14.00;57.90
1063;DHT22;520;50.932;6.962;2023-04-26T07:11:49;13.20;58.20
1063;DHT22;520;50.932;6.962;2023-04-26T07:14:31;12.30;59.60
1063;DHT22;520;50.932;6.962;2023-04-26T07:17:05;11.90;61.30
1063;DHT22;520;50.932;6.962;2023-04-26T07:19:41;11.80;62.70
1063;DHT22;520;50.932;6.962;2023-04-26T07:22:32;12.50;63.20
1063;DHT22;520;50.932;6.962;2023-04-26T07:25:08;14.40;60.60
1063;DHT22;520;50.932;6.962;2023-04-26T07:27:41;15.20;57.50
1063;DHT22;520;50.932;6.962;2023-04-26T07:30:56;15.30;56.80
1063;DHT22;520;50.932;6.962;2023-04-26T07:33:36;15.60;56.10
1063;DHT22;520;50.932;6.962;2023-04-26T07:36:20;15.80;55.60
1063;DHT22;520;50.932;6.962;2023-04-26T07:38:56;15.90;54.20
1063;DHT22;520;50.932;6.962;2023-04-26T07:42:09;16.70;53.40
1063;DHT22;520;50.932;6.962;2023-04-26T07:45:46;16.30;52.70
1063;DHT22;520;50.932;6.962;2023-04-26T07:48:51;15.50;52.10
1063;DHT22;520;50.932;6.962;2023-04-26T07:51:51;14.10;54.70
1063;DHT22;520;50.932;6.962;2023-04-26T07:54:42;13.30;56.90
1063;DHT22;520;50.932;6.962;2023-04-26T07:57:34;13.30;57.30
1063;DHT22;520;50.932;6.962;2023-04-26T08:00:37;12.90;58.10
1063;DHT22;520;50.932;6.962;2023-04-26T08:03:26;12.60;57.80
1063;DHT22;520;50.932;6.962;2023-04-26T08:09:20;12.60;57.20
1063;DHT22;520;50.932;6.962;2023-04-26T08:11:50;13.00;56.90
1063;DHT22;520;50.932;6.962;2023-04-26T08:17:37;13.20;55.50
1063;DHT22;520;50.932;6.962;2023-04-26T08:20:28;13.70;55.10
1063;DHT22;520;50.932;6.962;2023-04-26T08:23:32;13.70;54.50
1063;DHT22;520;50.932;6.962;2023-04-26T08:26:02;13.60;54.30
1063;DHT22;520;50.932;6.962;2023-04-26T08:29:11;13.70;55.20
1063;DHT22;520;50.932;6.962;2023-04-26T08:32:08;14.70;54.50
1063;DHT22;520;50.932;6.962;2023-04-26T08:34:57;15.70;52.40
1063;DHT22;520;50.932;6.962;2023-04-26T08:37:50;15.70;51.10
1063;DHT22;520;50.932;6.962;2023-04-26T08:40:53;14.70;52.00
1063;DHT22;520;50.932;6.962;2023-04-26T08:43:24;13.70;53.00
1063;DHT22;520;50.932;6.962;2023-04-26T08:46:25;13.00;54.10
1063;DHT22;520;50.932;6.962;2023-04-26T08:49:44;12.50;55.50
1063;DHT22;520;50.932;6.962;2023-04-26T08:52:34;12.10;57.00
1063;DHT22;520;50.932;6.962;2023-04-26T08:55:17;12.00;58.40
1063;DHT22;520;50.932;6.962;2023-04-26T08:57:57;12.30;57.60
1063;DHT22;520;50.932;6.962;2023-04-26T09:00:44;13.00;57.00
1063;DHT22;520;50.932;6.962;2023-04-26T09:03:56;13.40;55.70
1063;DHT22;520;50.932;6.962;2023-04-26T09:06:41;14.80;52.30
1063;DHT22;520;50.932;6.962;2023-04-26T09:09:45;14.90;51.90
1063;DHT22;520;50.932;6.962;2023-04-26T09:12:27;15.10;51.30
1063;DHT22;520;50.932;6.962;2023-04-26T09:15:23;14.60;51.10
1063;DHT22;520;50.932;6.962;2023-04-26T09:18:51;13.70;51.60
1063;DHT22;520;50.932;6.962;2023-04-26T09:21:58;13.20;53.10
1063;DHT22;520;50.932;6.962;2023-04-26T09:24:54;13.10;53.00
1063;DHT22;520;50.932;6.962;2023-04-26T09:28:03;12.90;53.00
1063;DHT22;520;50.932;6.962;2023-04-26T09:30:48;12.40;54.20
1063;DHT22;520;50.932;6.962;2023-04-26T09:36:55;12.20;55.10
1063;DHT22;520;50.932;6.962;2023-04-26T09:39:49;12.00;55.30
1063;DHT22;520;50.932;6.962;2023-04-26T09:42:35;12.10;55.70
1063;DHT22;520;50.932;6.962;2023-04-26T09:49:13;12.60;54.40
1063;DHT22;520;50.932;6.962;2023-04-26T09:52:12;13.00;52.30
1063;DHT22;520;50.932;6.962;2023-04-26T09:55:15;12.90;52.10
1063;DHT22;520;50.932;6.962;2023-04-26T09:58:09;12.50;52.20
1063;DHT22;520;50.932;6.962;2023-04-26T10:04:04;12.10;52.70
1063;DHT22;520;50.932;6.962;2023-04-26T10:06:51;12.00;53.30
1063;DHT22;520;50.932;6.962;2023-04-26T10:09:33;12.20;53.30
1063;DHT22;520;50.932;6.962;2023-04-26T10:12:30;12.20;54.70
1063;DHT22;520;50.932;6.962;2023-04-26T10:15:38;12.10;55.00
1063;DHT22;520;50.932;6.962;2023-04-26T10:18:34;11.80;55.40
1063;DHT22;520;50.932;6.962;2023-04-26T10:21:36;11.80;55.90
1063;DHT22;520;50.932;6.962;2023-04-26T10:24:27;12.10;56.30
1063;DHT22;520;50.932;6.962;2023-04-26T10:30:19;12.30;55.00
1063;DHT22;520;50.932;6.962;2023-04-26T10:33:25;12.20;54.70
1063;DHT22;520;50.932;6.962;2023-04-26T10:36:25;12.50;54.30
1063;DHT22;520;50.932;6.962;2023-04-26T10:39:37;13.00;53.00
1063;DHT22;520;50.932;6.962;2023-04-26T10:42:28;12.80;52.80
1063;DHT22;520;50.932;6.962;2023-04-26T10:45:39;13.10;53.10
1063;DHT22;520;50.932;6.962;2023-04-26T10:51:35;13.30;51.60
1063;DHT22;520;50.932;6.962;2023-04-26T10:55:11;13.60;51.20
1063;DHT22;520;50.932;6.962;2023-04-26T10:58:44;13.20;51.20
1063;DHT22;520;50.932;6.962;2023-04-26T11:01:59;13.60;51.30
1063;DHT22;520;50.932;6.962;2023-04-26T11:05:08;13.80;50.10
1063;DHT22;520;50.932;6.962;2023-04-26T11:08:06;13.80;50.10
1063;DHT22;520;50.932;6.962;2023-04-26T11:11:09;13.70;49.60
1063;DHT22;520;50.932;6.962;2023-04-26T11:14:13;13.40;49.90
1063;DHT22;520;50.932;6.962;2023-04-26T11:16:52;13.20;50.30
1063;DHT22;520;50.932;6.962;2023-04-26T11:20:07;13.30;50.50
1063;DHT22;520;50.932;6.962;2023-04-26T11:22:52;13.30;50.50
1063;DHT22;520;50.932;6.962;2023-04-26T11:25:42;13.60;50.00
1063;DHT22;520;50.932;6.962;2023-04-26T11:28:42;13.70;49.30
1063;DHT22;520;50.932;6.962;2023-04-26T11:31:57;13.60;49.70
1063;DHT22;520;50.932;6.962;2023-04-26T11:34:41;14.10;49.20
1063;DHT22;520;50.932;6.962;2023-04-26T11:37:35;14.00;48.70
1063;DHT22;520;50.932;6.962;2023-04-26T11:40:23;13.80;48.30
1063;DHT22;520;50.932;6.962;2023-04-26T11:43:16;13.70;48.50
1063;DHT22;520;50.932;6.962;2023-04-26T11:46:10;13.80;48.50
1063;DHT22;520;50.932;6.962;2023-04-26T11:49:10;14.30;47.80
1063;DHT22;520;50.932;6.962;2023-04-26T11:51:57;15.60;45.40
1063;DHT22;520;50.932;6.962;2023-04-26T11:58:13;15.90;44.10
1063;DHT22;520;50.932;6.962;2023-04-26T12:01:07;15.70;44.20
1063;DHT22;520;50.932;6.962;2023-04-26T12:03:55;16.20;43.90
1063;DHT22;520;50.932;6.962;2023-04-26T12:07:18;16.20;43.20
1063;DHT22;520;50.932;6.962;2023-04-26T12:10:51;15.90;42.00
1063;DHT22;520;50.932;6.962;2023-04-26T12:13:40;15.70;42.80
1063;DHT22;520;50.932;6.962;2023-04-26T12:16:40;16.20;44.20
1063;DHT22;520;50.932;6.962;2023-04-26T12:23:40;16.10;44.70
1063;DHT22;520;50.932;6.962;2023-04-26T12:27:00;15.60;44.40
1063;DHT22;520;50.932;6.962;2023-04-26T12:33:00;16.00;44.40
1063;DHT22;520;50.932;6.962;2023-04-26T12:36:45;16.40;44.00
1063;DHT22;520;50.932;6.962;2023-04-26T12:39:26;16.00;43.10
1063;DHT22;520;50.932;6.962;2023-04-26T12:42:29;15.10;44.30
1063;DHT22;520;50.932;6.962;2023-04-26T12:45:29;14.70;45.00
1063;DHT22;520;50.932;6.962;2023-04-26T12:48:34;14.70;46.40
1063;DHT22;520;50.932;6.962;2023-04-26T12:51:49;15.30;46.30
1063;DHT22;520;50.932;6.962;2023-04-26T12:54:58;15.60;46.50
1063;DHT22;520;50.932;6.962;2023-04-26T12:57:49;16.30;44.80
1063;DHT22;520;50.932;6.962;2023-04-26T13:00:52;15.90;44.70
1063;DHT22;520;50.932;6.962;2023-04-26T13:03:39;15.90;45.70
1063;DHT22;520;50.932;6.962;2023-04-26T13:07:08;16.20;45.50
1063;DHT22;520;50.932;6.962;2023-04-26T13:09:36;16.00;46.20
1063;DHT22;520;50.932;6.962;2023-04-26T13:12:48;16.30;45.10
1063;DHT22;520;50.932;6.962;2023-04-26T13:16:12;15.90;45.00
1063;DHT22;520;50.932;6.962;2023-04-26T13:19:46;16.20;44.10
1063;DHT22;520;50.932;6.962;2023-04-26T13:22:42;16.10;44.40
1063;DHT22;520;50.932;6.962;2023-04-26T13:25:51;17.00;43.30
1063;DHT22;520;50.932;6.962;2023-04-26T13:29:06;17.30;42.40
1063;DHT22;520;50.932;6.962;2023-04-26T13:31:51;16.80;42.00
1063;DHT22;520;50.932;6.962;2023-04-26T13:35:00;16.50;43.70
1063;DHT22;520;50.932;6.962;2023-04-26T13:41:40;16.20;43.80
1063;DHT22;520;50.932;6.962;2023-04-26T13:44:31;15.70;44.00
1063;DHT22;520;50.932;6.962;2023-04-26T13:47:47;15.40;44.70
1063;DHT22;520;50.932;6.962;2023-04-26T13:51:18;15.80;45.50
1063;DHT22;520;50.932;6.962;2023-04-26T13:54:14;16.70;45.00
1063;DHT22;520;50.932;6.962;2023-04-26T13:57:48;16.90;44.30
1063;DHT22;520;50.932;6.962;2023-04-26T14:00:49;16.90;44.40
1063;DHT22;520;50.932;6.962;2023-04-26T14:03:39;17.10;43.20
1063;DHT22;520;50.932;6.962;2023-04-26T14:06:39;17.50;42.50
1063;DHT22;520;50.932;6.962;2023-04-26T14:09:18;17.40;42.60
1063;DHT22;520;50.932;6.962;2023-04-26T14:11:57;17.10;42.60
1063;DHT22;520;50.932;6.962;2023-04-26T14:14:57;17.10;44.30
1063;DHT22;520;50.932;6.962;2023-04-26T14:18:04;17.30;44.60
1063;DHT22;520;50.932;6.962;2023-04-26T14:27:06;17.60;43.40
1063;DHT22;520;50.932;6.962;2023-04-26T14:30:14;17.50;43.30
1063;DHT22;520;50.932;6.962;2023-04-26T14:33:01;17.20;43.00
1063;DHT22;520;50.932;6.962;2023-04-26T14:36:25;17.00;43.30
1063;DHT22;520;50.932;6.962;2023-04-26T14:39:16;16.60;43.30
1063;DHT22;520;50.932;6.962;2023-04-26T14:41:54;16.30;43.80
1063;DHT22;520;50.932;6.962;2023-04-26T14:44:52;16.30;43.90
1063;DHT22;520;50.932;6.962;2023-04-26T14:47:47;16.00;43.50
1063;DHT22;520;50.932;6.962;2023-04-26T14:50:36;16.00;44.00
1063;DHT22;520;50.932;6.962;2023-04-26T14:53:20;16.00;44.00
1063;DHT22;520;50.932;6.962;2023-04-26T14:59:12;16.30;43.40
1063;DHT22;520;50.932;6.962;2023-04-26T15:01:56;16.00;43.70
1063;DHT22;520;50.932;6.962;2023-04-26T15:04:50;16.10;43.60
1063;DHT22;520;50.932;6.962;2023-04-26T15:07:32;16.20;43.10
1063;DHT22;520;50.932;6.962;2023-04-26T15:10:08;15.90;43.60
1063;DHT22;520;50.932;6.962;2023-04-26T15:13:14;15.90;44.90
1063;DHT22;520;50.932;6.962;2023-04-26T15:16:26;16.20;45.10
1063;DHT22;520;50.932;6.962;2023-04-26T15:19:09;16.10;45.00
1063;DHT22;520;50.932;6.962;2023-04-26T15:21:49;15.80;45.40
1063;DHT22;520;50.932;6.962;2023-04-26T15:24:39;15.60;45.40
1063;DHT22;520;50.932;6.962;2023-04-26T15:27:20;15.70;46.90
1063;DHT22;520;50.932;6.962;2023-04-26T15:30:30;16.00;45.70
1063;DHT22;520;50.932;6.962;2023-04-26T15:33:05;15.70;44.70
1063;DHT22;520;50.932;6.962;2023-04-26T15:36:08;15.50;44.50
1063;DHT22;520;50.932;6.962;2023-04-26T15:38:55;15.30;45.40
1063;DHT22;520;50.932;6.962;2023-04-26T15:41:48;15.70;45.00
1063;DHT22;520;50.932;6.962;2023-04-26T15:44:34;15.50;44.80
1063;DHT22;520;50.932;6.962;2023-04-26T15:47:13;15.40;45.10
1063;DHT22;520;50.932;6.962;2023-04-26T15:49:48;15.40;44.60
1063;DHT22;520;50.932;6.962;2023-04-26T15:52:32;15.40;45.00
1063;DHT22;520;50.932;6.962;2023-04-26T15:55:18;15.30;45.00
1063;DHT22;520;50.932;6.962;2023-04-26T15:58:11;15.40;44.80
1063;DHT22;520;50.932;6.962;2023-04-26T16:01:16;15.40;45.10
1063;DHT22;520;50.932;6.962;2023-04-26T16:03:56;15.00;45.60
1063;DHT22;520;50.932;6.962;2023-04-26T16:06:57;15.30;45.60
1063;DHT22;520;50.932;6.962;2023-04-26T16:09:36;15.20;45.00
1063;DHT22;520;50.932;6.962;2023-04-26T16:12:34;15.30;45.20
1063;DHT22;520;50.932;6.962;2023-04-26T16:15:45;15.40;45.10
1063;DHT22;520;50.932;6.962;2023-04-26T16:18:30;15.10;45.00
1063;DHT22;520;50.932;6.962;2023-04-26T16:21:19;15.10;44.90
1063;DHT22;520;50.932;6.962;2023-04-26T16:24:32;15.10;44.90
1063;DHT22;520;50.932;6.962;2023-04-26T16:27:27;15.40;45.00
1063;DHT22;520;50.932;6.962;2023-04-26T16:30:28;15.30;44.60
1063;DHT22;520;50.932;6.962;2023-04-26T16:33:36;15.00;45.00
1063;DHT22;520;50.932;6.962;2023-04-26T16:36:20;15.30;44.60
1063;DHT22;520;50.932;6.962;2023-04-26T16:39:01;15.30;44.10
1063;DHT22;520;50.932;6.962;2023-04-26T16:41:47;14.90;44.60
1063;DHT22;520;50.932;6.962;2023-04-26T16:44:52;15.00;44.90
1063;DHT22;520;50.932;6.962;2023-04-26T16:47:53;14.90;45.20
1063;DHT22;520;50.932;6.962;2023-04-26T16:51:11;14.70;45.10
1063;DHT22;520;50.932;6.962;2023-04-26T16:53:47;14.70;45.60
1063;DHT22;520;50.932;6.962;2023-04-26T16:56:25;14.70;45.00
1063;DHT22;520;50.932;6.962;2023-04-26T16:59:32;15.00;44.30
1063;DHT22;520;50.932;6.962;2023-04-26T17:02:16;15.10;43.70
1063;DHT22;520;50.932;6.962;2023-04-26T17:05:04;15.10;43.90
1063;DHT22;520;50.932;6.962;2023-04-26T17:07:44;14.90;44.10
1063;DHT22;520;50.932;6.962;2023-04-26T17:10:30;14.60;44.10
1063;DHT22;520;50.932;6.962;2023-04-26T17:14:02;14.70;44.40
1063;DHT22;520;50.932;6.962;2023-04-26T17:20:10;14.60;44.20
1063;DHT22;520;50.932;6.962;2023-04-26T17:23:02;14.40;44.30
1063;DHT22;520;50.932;6.962;2023-04-26T17:25:50;14.50;44.90
1063;DHT22;520;50.932;6.962;2023-04-26T17:31:47;14.40;44.50
1063;DHT22;520;50.932;6.962;2023-04-26T17:34:22;14.30;44.80
1063;DHT22;520;50.932;6.962;2023-04-26T17:37:21;14.20;45.00
1063;DHT22;520;50.932;6.962;2023-04-26T17:40:23;14.20;44.90
1063;DHT22;520;50.932;6.962;2023-04-26T17:43:20;14.20;44.60
1063;DHT22;520;50.932;6.962;2023-04-26T17:46:05;14.30;44.50
1063;DHT22;520;50.932;6.962;2023-04-26T17:48:49;14.20;45.00
1063;DHT22;520;50.932;6.962;2023-04-26T17:52:21;14.60;44.10
1063;DHT22;520;50.932;6.962;2023-04-26T17:54:58;14.40;43.80
1063;DHT22;520;50.932;6.962;2023-04-26T17:57:37;14.50;44.10
1063;DHT22;520;50.932;6.962;2023-04-26T18:06:39;14.10;45.80
1063;DHT22;520;50.932;6.962;2023-04-26T18:09:57;14.00;46.20
1063;DHT22;520;50.932;6.962;2023-04-26T18:12:49;14.00;46.50
1063;DHT22;520;50.932;6.962;2023-04-26T18:16:09;13.80;46.90
1063;DHT22;520;50.932;6.962;2023-04-26T18:19:25;13.60;47.30
1063;DHT22;520;50.932;6.962;2023-04-26T18:22:51;13.80;46.80
1063;DHT22;520;50.932;6.962;2023-04-26T18:25:26;13.80;46.30
1063;DHT22;520;50.932;6.962;2023-04-26T18:28:12;13.60;46.90
1063;DHT22;520;50.932;6.962;2023-04-26T18:31:01;13.60;47.00
1063;DHT22;520;50.932;6.962;2023-04-26T18:34:12;13.50;47.10
1063;DHT22;520;50.932;6.962;2023-04-26T18:36:51;13.30;47.70
1063;DHT22;520;50.932;6.962;2023-04-26T18:46:31;13.60;47.60
1063;DHT22;520;50.932;6.962;2023-04-26T18:50:03;13.60;47.80
1063;DHT22;520;50.932;6.962;2023-04-26T18:53:01;13.60;48.20
1063;DHT22;520;50.932;6.962;2023-04-26T18:56:25;13.50;48.70
1063;DHT22;520;50.932;6.962;2023-04-26T18:59:29;13.40;49.00
1063;DHT22;520;50.932;6.962;2023-04-26T19:02:19;13.30;49.30
1063;DHT22;520;50.932;6.962;2023-04-26T19:16:52;13.30;50.80
1063;DHT22;520;50.932;6.962;2023-04-26T19:25:50;13.20;50.70
1063;DHT22;520;50.932;6.962;2023-04-26T19:28:33;13.20;50.20
1063;DHT22;520;50.932;6.962;2023-04-26T19:34:19;13.20;50.20
1063;DHT22;520;50.932;6.962;2023-04-26T19:37:19;13.20;50.10
1063;DHT22;520;50.932;6.962;2023-04-26T19:40:08;13.20;49.80
1063;DHT22;520;50.932;6.962;2023-04-26T19:43:07;13.10;50.20
1063;DHT22;520;50.932;6.962;2023-04-26T19:46:01;13.00;50.50
1063;DHT22;520;50.932;6.962;2023-04-26T19:48:53;13.10;50.70
1063;DHT22;520;50.932;6.962;2023-04-26T19:51:29;13.10;51.00
1063;DHT22;520;50.932;6.962;2023-04-26T19:54:35;13.10;50.60
1063;DHT22;520;50.932;6.962;2023-04-26T19:57:40;12.90;50.30
1063;DHT22;520;50.932;6.962;2023-04-26T20:00:25;12.90;50.20
1063;DHT22;520;50.932;6.962;2023-04-26T20:03:23;12.80;50.50
1063;DHT22;520;50.932;6.962;2023-04-26T20:06:17;12.80;50.80
1063;DHT22;520;50.932;6.962;2023-04-26T20:09:10;12.90;51.10
1063;DHT22;520;50.932;6.962;2023-04-26T20:12:18;12.90;51.30
1063;DHT22;520;50.932;6.962;2023-04-26T20:20:45;12.90;52.40
1063;DHT22;520;50.932;6.962;2023-04-26T20:23:19;12.80;52.40
1063;DHT22;520;50.932;6.962;2023-04-26T20:26:15;12.70;52.30
1063;DHT22;520;50.932;6.962;2023-04-26T20:29:15;12.70;52.40
1063;DHT22;520;50.932;6.962;2023-04-26T20:32:02;12.80;53.00
1063;DHT22;520;50.932;6.962;2023-04-26T20:35:08;12.70;53.30
1063;DHT22;520;50.932;6.962;2023-04-26T20:41:25;12.50;53.60
1063;DHT22;520;50.932;6.962;2023-04-26T20:44:08;12.50;53.60
1063;DHT22;520;50.932;6.962;2023-04-26T20:47:22;12.40;54.00